createdAt,value
2023-05-25T00:01:49.287Z,11.82
2023-05-25T00:04:17.312Z,12.18
2023-05-25T00:06:45.691Z,12.45
2023-05-25T00:09:13.398Z,11.38
2023-05-25T00:11:40.564Z,11.98
2023-05-25T00:14:08.590Z,12.30
2023-05-25T00:16:37.866Z,10.75
2023-05-25T00:19:10.643Z,10.82
2023-05-25T00:21:41.599Z,10.82
2023-05-25T00:24:09.212Z,10.27
2023-05-25T00:26:36.592Z,11.13
2023-05-25T00:29:04.897Z,10.20
2023-05-25T00:31:33.549Z,10.13
2023-05-25T00:34:01.154Z,10.95
2023-05-25T00:36:28.422Z,10.82
2023-05-25T00:38:55.919Z,10.95
2023-05-25T00:41:23.855Z,10.38
2023-05-25T00:43:51.126Z,10.02
2023-05-25T00:46:18.518Z,11.68
2023-05-25T00:48:46.614Z,11.10
2023-05-25T00:51:16.272Z,11.20
2023-05-25T00:53:43.732Z,10.90
2023-05-25T00:56:20.795Z,10.23
2023-05-25T00:58:54.734Z,9.23
2023-05-25T01:01:24.369Z,10.90
2023-05-25T01:03:54.118Z,12.15
2023-05-25T01:06:23.166Z,11.65
2023-05-25T01:09:00.414Z,11.13
2023-05-25T01:11:39.064Z,11.00
2023-05-25T01:14:06.960Z,10.65
2023-05-25T01:16:34.907Z,10.85
2023-05-25T01:19:02.985Z,10.93
2023-05-25T01:21:42.299Z,10.82
2023-05-25T01:24:46.457Z,9.98
2023-05-25T01:27:40.181Z,10.43
2023-05-25T01:30:13.655Z,9.63
2023-05-25T01:32:43.690Z,10.25
2023-05-25T01:35:12.563Z,10.43
2023-05-25T01:37:46.022Z,11.05
2023-05-25T01:40:15.808Z,9.85
2023-05-25T01:42:43.190Z,11.30
2023-05-25T01:45:13.152Z,12.25
2023-05-25T01:47:58.352Z,10.88
2023-05-25T01:50:43.238Z,10.85
2023-05-25T01:53:16.211Z,11.02
2023-05-25T01:55:53.857Z,12.13
2023-05-25T01:58:22.311Z,11.80
2023-05-25T02:00:51.786Z,10.68
2023-05-25T02:03:20.212Z,10.50
2023-05-25T02:05:49.468Z,11.80
2023-05-25T02:08:16.816Z,10.60
2023-05-25T02:10:44.178Z,10.98
2023-05-25T02:13:12.376Z,11.25
2023-05-25T02:15:39.650Z,11.45
2023-05-25T02:18:08.690Z,10.25
2023-05-25T02:20:37.716Z,10.52
2023-05-25T02:23:05.177Z,9.90
2023-05-25T02:25:32.420Z,9.55
2023-05-25T02:27:59.700Z,10.77
2023-05-25T02:30:27.043Z,11.27
2023-05-25T02:32:57.318Z,10.52
2023-05-25T02:35:24.753Z,11.00
2023-05-25T02:37:52.177Z,11.55
2023-05-25T02:40:19.536Z,10.98
2023-05-25T02:42:47.328Z,12.07
2023-05-25T02:45:15.467Z,11.05
2023-05-25T02:47:42.758Z,11.38
2023-05-25T02:50:10.799Z,12.05
2023-05-25T02:52:43.609Z,11.82
2023-05-25T02:55:13.680Z,12.15
2023-05-25T02:57:42.228Z,11.73
2023-05-25T03:00:12.498Z,11.38
2023-05-25T03:02:40.114Z,12.48
2023-05-25T03:05:08.814Z,11.30
2023-05-25T03:07:36.914Z,12.40
2023-05-25T03:10:04.899Z,12.25
2023-05-25T03:12:32.910Z,12.48
2023-05-25T03:15:00.192Z,11.65
2023-05-25T03:17:27.530Z,11.88
2023-05-25T03:19:55.026Z,12.10
2023-05-25T03:22:22.407Z,12.95
2023-05-25T03:24:50.317Z,12.13
2023-05-25T03:27:18.186Z,12.20
2023-05-25T03:29:45.932Z,12.20
2023-05-25T03:32:14.186Z,11.88
2023-05-25T03:34:41.632Z,12.18
2023-05-25T03:37:10.578Z,12.60
2023-05-25T03:39:37.990Z,11.98
2023-05-25T03:42:06.583Z,12.68
2023-05-25T03:44:34.059Z,12.70
2023-05-25T03:47:01.394Z,12.38
2023-05-25T03:49:29.442Z,11.93
2023-05-25T03:52:00.201Z,11.18
2023-05-25T03:54:28.273Z,10.90
2023-05-25T03:56:56.854Z,10.50
2023-05-25T03:59:25.811Z,12.68
2023-05-25T04:01:53.078Z,11.32
2023-05-25T04:04:20.766Z,10.68
2023-05-25T04:06:49.203Z,11.10
2023-05-25T04:09:16.551Z,12.35
2023-05-25T04:11:45.512Z,10.93
2023-05-25T04:14:13.063Z,13.27
2023-05-25T04:16:42.279Z,11.80
2023-05-25T04:19:10.347Z,11.63
2023-05-25T04:21:37.976Z,13.60
2023-05-25T04:24:07.842Z,15.60
2023-05-25T04:26:35.724Z,16.30
2023-05-25T04:29:03.706Z,15.90
2023-05-25T04:31:47.432Z,14.52
2023-05-25T04:34:15.151Z,16.60
2023-05-25T04:36:50.517Z,16.45
2023-05-25T04:39:18.736Z,18.15
2023-05-25T04:41:53.068Z,18.45
2023-05-25T04:44:20.637Z,18.75
2023-05-25T04:46:51.152Z,17.20
2023-05-25T04:49:24.055Z,17.08
2023-05-25T04:51:51.762Z,18.70
2023-05-25T04:54:19.295Z,16.77
2023-05-25T04:56:46.680Z,18.55
2023-05-25T04:59:13.917Z,17.38
2023-05-25T05:01:41.610Z,19.17
2023-05-25T05:06:39.894Z,17.65
2023-05-25T05:09:11.012Z,17.38
2023-05-25T05:11:38.595Z,16.95
2023-05-25T05:14:07.384Z,18.20
2023-05-25T05:16:35.574Z,18.02
2023-05-25T05:19:03.111Z,17.98
2023-05-25T05:21:30.973Z,16.90
2023-05-25T05:23:58.375Z,17.63
2023-05-25T05:26:25.718Z,17.58
2023-05-25T05:28:53.194Z,16.10
2023-05-25T05:31:23.112Z,16.60
2023-05-25T05:33:50.879Z,16.35
2023-05-25T05:36:18.417Z,17.08
2023-05-25T05:38:46.929Z,17.95
2023-05-25T05:41:14.805Z,17.75
2023-05-25T05:43:48.074Z,18.92
2023-05-25T05:46:15.468Z,18.48
2023-05-25T05:48:43.023Z,18.58
2023-05-25T05:51:11.651Z,17.80
2023-05-25T05:53:39.120Z,17.70
2023-05-25T05:56:07.317Z,17.60
2023-05-25T05:58:34.853Z,17.90
2023-05-25T06:01:03.541Z,19.02
2023-05-25T06:03:31.025Z,17.55
2023-05-25T06:05:58.440Z,18.50
2023-05-25T06:08:27.603Z,16.88
2023-05-25T06:10:56.126Z,18.00
2023-05-25T06:13:23.538Z,15.60
2023-05-25T06:15:50.888Z,15.80
2023-05-25T06:18:22.858Z,16.80
2023-05-25T06:20:50.443Z,17.77
2023-05-25T06:23:18.972Z,15.48
2023-05-25T06:25:47.081Z,15.70
2023-05-25T06:28:15.597Z,14.40
2023-05-25T06:30:42.945Z,14.68
2023-05-25T06:33:11.832Z,16.30
2023-05-25T06:35:39.357Z,15.00
2023-05-25T06:38:07.012Z,15.00
2023-05-25T06:40:35.524Z,14.98
2023-05-25T06:43:03.760Z,16.08
2023-05-25T06:45:59.957Z,15.15
2023-05-25T06:48:27.674Z,16.00
2023-05-25T06:50:54.943Z,14.80
2023-05-25T06:53:22.275Z,16.10
2023-05-25T06:55:49.604Z,16.80
2023-05-25T06:58:17.078Z,15.20
2023-05-25T07:00:46.022Z,14.90
2023-05-25T07:03:14.203Z,14.65
2023-05-25T07:05:41.577Z,13.18
2023-05-25T07:08:08.982Z,14.88
2023-05-25T07:10:36.195Z,14.98
2023-05-25T07:13:03.497Z,12.25
2023-05-25T07:15:30.961Z,12.57
2023-05-25T07:17:58.869Z,12.98
2023-05-25T07:20:27.452Z,12.23
2023-05-25T07:22:54.852Z,13.82
2023-05-25T07:25:22.181Z,12.35
2023-05-25T07:27:50.555Z,11.65
2023-05-25T07:30:17.887Z,10.30
2023-05-25T07:32:45.293Z,10.30
2023-05-25T07:35:12.575Z,10.52
2023-05-25T07:37:39.870Z,11.20
2023-05-25T07:40:08.040Z,10.63
2023-05-25T07:42:35.565Z,12.07
2023-05-25T07:45:03.397Z,11.23
2023-05-25T07:47:30.772Z,10.07
2023-05-25T07:49:58.065Z,10.65
2023-05-25T07:52:25.364Z,10.40
2023-05-25T07:54:52.764Z,12.05
2023-05-25T07:57:20.141Z,10.95
2023-05-25T07:59:47.397Z,11.00
2023-05-25T08:02:14.811Z,11.30
2023-05-25T08:04:42.353Z,9.82
2023-05-25T08:07:09.798Z,10.80
2023-05-25T08:09:37.016Z,10.23
2023-05-25T08:12:30.177Z,10.10
2023-05-25T08:14:52.015Z,11.05
2023-05-25T08:17:19.298Z,11.73
2023-05-25T08:19:46.671Z,13.25
2023-05-25T08:22:13.883Z,11.27
2023-05-25T08:24:41.469Z,12.00
2023-05-25T08:27:08.859Z,10.80
2023-05-25T08:29:36.135Z,10.77
2023-05-25T08:32:03.491Z,11.48
2023-05-25T08:34:30.815Z,12.43
2023-05-25T08:36:58.544Z,11.30
2023-05-25T08:39:25.974Z,11.35
2023-05-25T08:41:54.007Z,11.82
2023-05-25T08:44:22.291Z,11.65
2023-05-25T08:46:50.412Z,11.02
2023-05-25T08:49:17.993Z,12.32
2023-05-25T08:51:54.053Z,12.93
2023-05-25T08:54:37.411Z,13.10
2023-05-25T08:57:17.031Z,12.02
2023-05-25T09:00:11.108Z,12.90
2023-05-25T09:02:44.251Z,12.23
2023-05-25T09:05:13.421Z,12.25
2023-05-25T09:07:43.910Z,14.20
2023-05-25T09:10:15.232Z,14.25
2023-05-25T09:12:43.793Z,13.13
2023-05-25T09:15:12.360Z,14.40
2023-05-25T09:17:41.688Z,12.90
2023-05-25T09:20:13.812Z,12.32
2023-05-25T09:22:42.345Z,11.25
2023-05-25T09:25:11.730Z,10.73
2023-05-25T09:27:39.454Z,10.43
2023-05-25T09:30:07.785Z,10.85
2023-05-25T09:32:36.372Z,10.23
2023-05-25T09:35:15.642Z,12.10
2023-05-25T09:37:44.317Z,11.07
2023-05-25T09:40:12.503Z,10.75
2023-05-25T09:42:41.219Z,11.40
2023-05-25T09:45:09.275Z,11.00
2023-05-25T09:47:38.393Z,11.18
2023-05-25T09:50:07.009Z,12.10
2023-05-25T09:52:35.801Z,13.10
2023-05-25T09:55:03.960Z,11.50
2023-05-25T09:57:31.540Z,11.45
2023-05-25T09:59:59.193Z,11.32
2023-05-25T10:02:28.093Z,10.48
2023-05-25T10:04:55.607Z,11.90
2023-05-25T10:07:24.613Z,11.20
2023-05-25T10:09:54.827Z,11.85
2023-05-25T10:12:24.137Z,10.73
2023-05-25T10:14:52.255Z,11.48
2023-05-25T10:17:24.932Z,12.00
2023-05-25T10:20:01.250Z,10.93
2023-05-25T10:22:44.949Z,12.45
2023-05-25T10:25:17.831Z,12.13
2023-05-25T10:27:54.324Z,11.20
2023-05-25T10:30:23.720Z,11.30
2023-05-25T10:32:51.624Z,10.43
2023-05-25T10:35:21.150Z,11.57
2023-05-25T10:37:51.552Z,11.53
2023-05-25T10:42:53.060Z,11.55
2023-05-25T10:45:21.848Z,11.15
2023-05-25T10:47:51.150Z,11.07
2023-05-25T10:50:27.283Z,10.70
2023-05-25T10:53:08.278Z,11.40
2023-05-25T10:55:53.354Z,10.57
2023-05-25T10:58:23.084Z,9.10
2023-05-25T11:01:09.260Z,9.63
2023-05-25T11:03:50.733Z,9.35
2023-05-25T11:06:21.818Z,9.35
2023-05-25T11:09:00.474Z,9.00
2023-05-25T11:11:43.214Z,9.38
2023-05-25T11:14:40.737Z,9.48
2023-05-25T11:17:18.341Z,9.95
2023-05-25T11:19:52.173Z,10.23
2023-05-25T11:22:35.483Z,8.80
2023-05-25T11:25:24.945Z,9.68
2023-05-25T11:27:54.503Z,11.55
2023-05-25T11:30:28.613Z,12.57
2023-05-25T11:32:59.651Z,12.85
2023-05-25T11:35:28.879Z,13.40
2023-05-25T11:37:56.176Z,13.65
2023-05-25T11:40:23.950Z,13.57
2023-05-25T11:42:52.977Z,13.55
2023-05-25T11:45:23.299Z,14.77
2023-05-25T11:47:50.808Z,13.88
2023-05-25T11:50:18.205Z,13.35
2023-05-25T11:52:45.672Z,12.93
2023-05-25T11:55:14.541Z,13.57
2023-05-25T11:57:42.357Z,13.35
2023-05-25T12:00:11.497Z,14.65
2023-05-25T12:02:42.067Z,14.02
2023-05-25T12:05:11.305Z,14.18
2023-05-25T12:07:46.930Z,14.20
2023-05-25T12:10:17.882Z,15.65
2023-05-25T12:12:51.652Z,15.40
2023-05-25T12:15:23.779Z,14.98
2023-05-25T12:17:53.795Z,16.95
2023-05-25T12:20:22.103Z,14.82
2023-05-25T12:22:49.697Z,15.45
2023-05-25T12:25:21.957Z,16.48
2023-05-25T12:27:49.752Z,15.80
2023-05-25T12:30:16.985Z,16.20
2023-05-25T12:33:15.180Z,15.93
2023-05-25T12:35:48.860Z,15.77
2023-05-25T12:38:18.935Z,17.08
2023-05-25T12:40:47.147Z,14.85
2023-05-25T12:43:17.021Z,14.32
2023-05-25T12:45:44.657Z,15.25
2023-05-25T12:48:12.708Z,15.35
2023-05-25T12:50:56.503Z,16.98
2023-05-25T12:53:23.803Z,14.98
2023-05-25T12:56:00.330Z,14.35
2023-05-25T12:58:28.814Z,14.88
2023-05-25T13:00:56.286Z,14.85
2023-05-25T13:03:23.660Z,16.08
2023-05-25T13:05:51.910Z,15.85
2023-05-25T13:08:19.366Z,16.33
2023-05-25T13:10:51.637Z,15.55
2023-05-25T13:13:18.975Z,16.75
2023-05-25T13:15:46.157Z,16.55
2023-05-25T13:18:13.559Z,15.32
2023-05-25T13:20:40.977Z,16.50
2023-05-25T13:23:08.333Z,19.63
2023-05-25T13:25:36.410Z,17.33
2023-05-25T13:28:05.813Z,15.55
2023-05-25T13:30:33.151Z,15.77
2023-05-25T13:33:00.731Z,16.60
2023-05-25T13:35:41.807Z,16.33
2023-05-25T13:38:10.782Z,16.42
2023-05-25T13:40:38.079Z,16.17
2023-05-25T13:43:05.584Z,16.45
2023-05-25T13:45:34.132Z,15.98
2023-05-25T13:48:01.483Z,16.50
2023-05-25T13:50:28.855Z,15.15
2023-05-25T13:52:56.183Z,16.52
2023-05-25T13:55:24.113Z,18.02
2023-05-25T13:57:52.440Z,16.33
2023-05-25T14:00:20.135Z,16.70
2023-05-25T14:02:47.830Z,18.15
2023-05-25T14:05:15.267Z,16.33
2023-05-25T14:07:42.667Z,16.52
2023-05-25T14:10:10.932Z,17.50
2023-05-25T14:12:38.499Z,17.38
2023-05-25T14:15:07.196Z,21.08
2023-05-25T14:17:34.603Z,17.63
2023-05-25T14:20:04.842Z,25.52
2023-05-25T14:24:59.800Z,19.50
2023-05-25T14:27:27.253Z,18.33
2023-05-25T14:29:54.831Z,18.42
2023-05-25T14:32:22.182Z,18.15
2023-05-25T14:34:49.537Z,18.08
2023-05-25T14:37:16.777Z,18.58
2023-05-25T14:39:44.079Z,18.40
2023-05-25T14:42:11.806Z,17.58
2023-05-25T14:44:39.135Z,18.75
2023-05-25T14:47:06.811Z,18.52
2023-05-25T14:49:34.366Z,18.25
2023-05-25T14:52:01.692Z,16.58
2023-05-25T14:54:29.109Z,17.73
2023-05-25T14:56:56.519Z,16.63
2023-05-25T14:59:23.955Z,17.38
2023-05-25T15:01:51.468Z,17.30
2023-05-25T15:04:19.046Z,16.75
2023-05-25T15:06:46.441Z,17.73
2023-05-25T15:09:16.084Z,16.15
2023-05-25T15:11:43.326Z,28.70
2023-05-25T15:14:10.790Z,31.38
2023-05-25T15:16:38.729Z,18.95
2023-05-25T15:19:06.035Z,15.88
2023-05-25T15:21:33.568Z,16.33
2023-05-25T15:24:00.952Z,18.25
2023-05-25T15:26:28.382Z,16.55
2023-05-25T15:28:55.623Z,14.30
2023-05-25T15:31:24.020Z,15.15
2023-05-25T15:33:58.216Z,14.63
2023-05-25T15:36:26.298Z,15.93
2023-05-25T15:38:53.533Z,15.98
2023-05-25T15:41:21.015Z,16.33
2023-05-25T15:44:01.170Z,15.50
2023-05-25T15:46:29.205Z,15.15
2023-05-25T15:48:56.721Z,14.25
2023-05-25T15:51:24.132Z,14.40
2023-05-25T15:53:51.320Z,14.95
2023-05-25T15:56:18.674Z,14.88
2023-05-25T15:58:48.982Z,16.70
2023-05-25T16:03:45.031Z,15.23
2023-05-25T16:06:12.501Z,15.27
2023-05-25T16:08:39.699Z,16.67
2023-05-25T16:11:07.146Z,16.13
2023-05-25T16:13:34.475Z,16.15
2023-05-25T16:16:02.101Z,16.63
2023-05-25T16:18:29.500Z,16.20
2023-05-25T16:20:58.084Z,16.60
2023-05-25T16:23:25.742Z,17.70
2023-05-25T16:25:53.356Z,17.00
2023-05-25T16:28:20.962Z,14.63
2023-05-25T16:30:48.223Z,15.10
2023-05-25T16:33:15.745Z,14.23
2023-05-25T16:35:43.987Z,14.70
2023-05-25T16:38:11.652Z,14.30
2023-05-25T16:40:39.045Z,14.05
2023-05-25T16:43:06.476Z,16.15
2023-05-25T16:45:33.733Z,14.88
2023-05-25T16:48:01.198Z,15.32
2023-05-25T16:50:29.170Z,16.27
2023-05-25T16:52:57.218Z,15.65
2023-05-25T16:55:24.656Z,15.95
2023-05-25T16:57:52.074Z,15.77
2023-05-25T17:00:19.837Z,15.10
2023-05-25T17:02:47.332Z,16.13
2023-05-25T17:05:15.449Z,16.05
2023-05-25T17:07:42.888Z,16.25
2023-05-25T17:10:10.893Z,17.63
2023-05-25T17:12:38.495Z,16.65
2023-05-25T17:15:06.784Z,17.35
2023-05-25T17:17:34.245Z,19.52
2023-05-25T17:20:01.935Z,18.15
2023-05-25T17:22:29.499Z,18.15
2023-05-25T17:24:56.847Z,18.90
2023-05-25T17:27:24.318Z,18.00
2023-05-25T17:29:51.871Z,17.85
2023-05-25T17:32:19.533Z,18.58
2023-05-25T17:34:46.960Z,20.13
2023-05-25T17:37:14.424Z,18.80
2023-05-25T17:39:42.904Z,17.33
2023-05-25T17:42:10.525Z,17.80
2023-05-25T17:44:42.578Z,18.13
2023-05-25T17:47:11.219Z,18.38
2023-05-25T17:49:38.919Z,18.85
2023-05-25T17:52:07.669Z,17.77
2023-05-25T17:54:35.889Z,17.35
2023-05-25T17:57:03.681Z,18.27
2023-05-25T17:59:31.127Z,19.25
2023-05-25T18:01:58.563Z,18.13
2023-05-25T18:04:26.085Z,17.25
2023-05-25T18:06:53.543Z,17.88
2023-05-25T18:09:21.936Z,18.70
2023-05-25T18:11:51.889Z,18.40
2023-05-25T18:14:21.241Z,19.48
2023-05-25T18:16:48.729Z,17.83
2023-05-25T18:19:17.910Z,19.00
2023-05-25T18:21:45.238Z,18.88
2023-05-25T18:24:12.697Z,19.17
2023-05-25T18:26:41.731Z,18.85
2023-05-25T18:29:09.125Z,19.60
2023-05-25T18:31:36.605Z,18.98
2023-05-25T18:34:05.508Z,19.30
2023-05-25T18:36:33.359Z,18.75
2023-05-25T18:39:00.701Z,18.10
2023-05-25T18:41:28.382Z,19.25
2023-05-25T18:43:55.977Z,19.88
2023-05-25T18:46:24.944Z,19.20
2023-05-25T18:48:52.869Z,19.02
2023-05-25T18:51:25.975Z,19.67
2023-05-25T18:53:53.612Z,20.48
2023-05-25T18:56:21.590Z,19.48
2023-05-25T18:58:50.797Z,19.25
2023-05-25T19:01:18.530Z,19.67
2023-05-25T19:03:46.286Z,19.80
2023-05-25T19:06:13.800Z,19.23
2023-05-25T19:08:41.182Z,19.63
2023-05-25T19:11:08.534Z,20.13
2023-05-25T19:13:35.936Z,20.38
2023-05-25T19:16:04.335Z,20.70
2023-05-25T19:18:31.718Z,19.92
2023-05-25T19:20:59.522Z,20.98
2023-05-25T19:23:27.056Z,21.15
2023-05-25T19:25:54.591Z,21.05
2023-05-25T19:28:21.926Z,20.85
2023-05-25T19:30:49.392Z,22.52
2023-05-25T19:33:16.867Z,22.00
2023-05-25T19:35:45.393Z,22.55
2023-05-25T19:38:13.048Z,21.48
2023-05-25T19:40:40.636Z,22.05
2023-05-25T19:43:07.893Z,22.75
2023-05-25T19:45:35.784Z,22.73
2023-05-25T19:48:03.636Z,23.35
2023-05-25T19:50:31.006Z,21.98
2023-05-25T19:52:59.002Z,22.33
2023-05-25T19:55:27.610Z,22.33
2023-05-25T19:57:55.160Z,22.45
2023-05-25T20:00:26.612Z,22.27
2023-05-25T20:02:54.739Z,20.77
2023-05-25T20:05:22.539Z,21.60
2023-05-25T20:07:52.298Z,21.25
2023-05-25T20:10:20.048Z,21.63
2023-05-25T20:12:47.489Z,20.98
2023-05-25T20:15:15.177Z,19.92
2023-05-25T20:17:42.726Z,20.20
2023-05-25T20:20:10.555Z,20.15
2023-05-25T20:22:38.046Z,19.98
2023-05-25T20:25:06.370Z,19.67
2023-05-25T20:27:33.653Z,21.75
2023-05-25T20:30:01.007Z,20.00
2023-05-25T20:32:28.401Z,21.70
2023-05-25T20:34:55.774Z,21.05
2023-05-25T20:37:22.944Z,22.42
2023-05-25T20:39:50.455Z,24.42
2023-05-25T20:42:17.728Z,23.65
2023-05-25T20:44:45.130Z,23.42
2023-05-25T20:47:12.400Z,24.05
2023-05-25T20:49:39.671Z,23.77
2023-05-25T20:52:07.202Z,25.20
2023-05-25T20:54:34.693Z,22.25
2023-05-25T20:57:04.009Z,24.13
2023-05-25T20:59:32.015Z,24.50
2023-05-25T21:01:59.459Z,23.38
2023-05-25T21:04:27.352Z,28.13
2023-05-25T21:06:55.603Z,28.05
2023-05-25T21:09:23.115Z,28.50
2023-05-25T21:11:50.904Z,26.02
2023-05-25T21:14:18.202Z,23.92
2023-05-25T21:16:45.728Z,21.77
2023-05-25T21:19:13.062Z,22.02
2023-05-25T21:21:40.533Z,20.58
2023-05-25T21:24:08.114Z,21.92
2023-05-25T21:26:35.574Z,21.35
2023-05-25T21:29:02.955Z,20.95
2023-05-25T21:31:30.372Z,21.52
2023-05-25T21:33:59.386Z,20.98
2023-05-25T21:36:27.647Z,24.48
2023-05-25T21:38:54.927Z,24.33
2023-05-25T21:41:23.398Z,24.80
2023-05-25T21:43:50.884Z,23.45
2023-05-25T21:46:18.292Z,22.60
2023-05-25T21:48:45.555Z,22.13
2023-05-25T21:51:12.840Z,20.98
2023-05-25T21:53:40.072Z,22.60
2023-05-25T21:56:07.349Z,22.27
2023-05-25T21:58:34.535Z,21.63
2023-05-25T22:01:01.905Z,20.17
2023-05-25T22:03:29.629Z,22.65
2023-05-25T22:05:56.882Z,21.88
2023-05-25T22:08:24.856Z,23.30
2023-05-25T22:10:52.092Z,22.23
2023-05-25T22:13:19.292Z,22.60
2023-05-25T22:15:46.721Z,22.02
2023-05-25T22:18:14.328Z,22.50
2023-05-25T22:20:42.301Z,23.08
2023-05-25T22:23:13.132Z,22.33
2023-05-25T22:25:40.638Z,21.13
2023-05-25T22:28:08.359Z,23.98
2023-05-25T22:30:35.665Z,22.60
2023-05-25T22:33:03.356Z,23.17
2023-05-25T22:35:30.905Z,22.83
2023-05-25T22:37:58.235Z,22.85
2023-05-25T22:40:25.610Z,24.25
2023-05-25T22:42:52.825Z,25.80
2023-05-25T22:45:21.463Z,23.75
2023-05-25T22:47:48.927Z,24.38
2023-05-25T22:50:16.533Z,24.85
2023-05-25T22:52:43.964Z,22.35
2023-05-25T22:55:11.323Z,24.60
2023-05-25T22:57:39.413Z,25.02
2023-05-25T23:00:07.816Z,25.63
2023-05-25T23:02:35.161Z,24.33
2023-05-25T23:05:02.860Z,23.30
2023-05-25T23:07:30.180Z,23.60
2023-05-25T23:09:57.565Z,21.98
2023-05-25T23:12:24.907Z,22.80
2023-05-25T23:14:53.503Z,23.00
2023-05-25T23:17:22.020Z,23.92
2023-05-25T23:19:49.244Z,22.45
2023-05-25T23:22:16.622Z,20.80
2023-05-25T23:24:43.836Z,21.35
2023-05-25T23:27:11.279Z,21.30
2023-05-25T23:29:38.535Z,20.95
2023-05-25T23:32:06.832Z,21.38
2023-05-25T23:34:34.075Z,22.63
2023-05-25T23:37:01.621Z,22.65
2023-05-25T23:39:28.861Z,23.75
2023-05-25T23:41:56.564Z,23.45
2023-05-25T23:44:23.926Z,24.92
2023-05-25T23:46:51.395Z,27.67
2023-05-25T23:49:18.606Z,26.42
2023-05-25T23:51:46.156Z,26.58
2023-05-25T23:54:13.446Z,24.02
2023-05-25T23:56:40.705Z,24.75
2023-05-25T23:59:08.130Z,25.20
